sensor_id;sensor_type;location;lat;lon;timestamp;P1;durP1;ratioP1;P2;durP2;ratioP2
72354;SDS011;60314;55.040;73.076;2022-08-23T00:00:18;6.97;;;4.30;;
72354;SDS011;60314;55.040;73.076;2022-08-23T00:02:45;9.07;;;4.05;;
72354;SDS011;60314;55.040;73.076;2022-08-23T00:05:11;8.18;;;4.03;;
72354;SDS011;60314;55.040;73.076;2022-08-23T00:07:39;7.43;;;4.03;;
72354;SDS011;60314;55.040;73.076;2022-08-23T00:10:12;9.52;;;3.92;;
72354;SDS011;60314;55.040;73.076;2022-08-23T00:12:41;8.13;;;4.30;;
72354;SDS011;60314;55.040;73.076;2022-08-23T00:15:09;6.10;;;2.97;;
72354;SDS011;60314;55.040;73.076;2022-08-23T00:17:38;7.22;;;3.10;;
72354;SDS011;60314;55.040;73.076;2022-08-23T00:20:08;6.32;;;3.35;;
72354;SDS011;60314;55.040;73.076;2022-08-23T00:22:36;4.70;;;2.72;;
72354;SDS011;60314;55.040;73.076;2022-08-23T00:25:05;5.30;;;3.05;;
72354;SDS011;60314;55.040;73.076;2022-08-23T00:27:33;5.13;;;2.85;;
72354;SDS011;60314;55.040;73.076;2022-08-23T00:30:00;7.20;;;3.33;;
72354;SDS011;60314;55.040;73.076;2022-08-23T00:32:29;4.88;;;2.58;;
72354;SDS011;60314;55.040;73.076;2022-08-23T00:34:57;5.00;;;3.38;;
72354;SDS011;60314;55.040;73.076;2022-08-23T00:37:25;5.65;;;3.53;;
72354;SDS011;60314;55.040;73.076;2022-08-23T00:39:53;5.65;;;3.13;;
72354;SDS011;60314;55.040;73.076;2022-08-23T00:48:25;5.85;;;3.00;;
72354;SDS011;60314;55.040;73.076;2022-08-23T00:53:50;4.63;;;3.00;;
72354;SDS011;60314;55.040;73.076;2022-08-23T00:56:24;4.85;;;2.92;;
72354;SDS011;60314;55.040;73.076;2022-08-23T00:58:52;4.95;;;2.90;;
72354;SDS011;60314;55.040;73.076;2022-08-23T01:01:19;7.15;;;3.65;;
72354;SDS011;60314;55.040;73.076;2022-08-23T01:03:50;5.55;;;3.22;;
72354;SDS011;60314;55.040;73.076;2022-08-23T01:09:19;5.97;;;2.80;;
72354;SDS011;60314;55.040;73.076;2022-08-23T01:11:52;6.57;;;2.72;;
72354;SDS011;60314;55.040;73.076;2022-08-23T01:14:33;5.50;;;2.83;;
72354;SDS011;60314;55.040;73.076;2022-08-23T01:17:19;4.73;;;2.50;;
72354;SDS011;60314;55.040;73.076;2022-08-23T01:19:51;5.30;;;2.30;;
72354;SDS011;60314;55.040;73.076;2022-08-23T01:25:01;4.03;;;2.25;;
72354;SDS011;60314;55.040;73.076;2022-08-23T01:27:44;6.47;;;2.40;;
72354;SDS011;60314;55.040;73.076;2022-08-23T01:30:27;6.85;;;2.45;;
72354;SDS011;60314;55.040;73.076;2022-08-23T01:33:03;7.57;;;2.83;;
72354;SDS011;60314;55.040;73.076;2022-08-23T01:35:35;5.18;;;2.40;;
72354;SDS011;60314;55.040;73.076;2022-08-23T01:38:10;5.30;;;2.40;;
72354;SDS011;60314;55.040;73.076;2022-08-23T01:40:42;4.93;;;2.72;;
72354;SDS011;60314;55.040;73.076;2022-08-23T01:43:10;8.48;;;2.67;;
72354;SDS011;60314;55.040;73.076;2022-08-23T01:45:44;4.97;;;2.60;;
72354;SDS011;60314;55.040;73.076;2022-08-23T01:48:22;4.13;;;2.55;;
72354;SDS011;60314;55.040;73.076;2022-08-23T01:50:54;5.90;;;2.63;;
72354;SDS011;60314;55.040;73.076;2022-08-23T01:53:23;4.53;;;2.30;;
72354;SDS011;60314;55.040;73.076;2022-08-23T01:55:50;5.47;;;2.70;;
72354;SDS011;60314;55.040;73.076;2022-08-23T01:58:19;5.28;;;2.55;;
72354;SDS011;60314;55.040;73.076;2022-08-23T02:00:46;7.07;;;2.28;;
72354;SDS011;60314;55.040;73.076;2022-08-23T02:03:12;5.20;;;2.33;;
72354;SDS011;60314;55.040;73.076;2022-08-23T02:05:50;8.55;;;2.60;;
72354;SDS011;60314;55.040;73.076;2022-08-23T02:08:18;4.88;;;2.15;;
72354;SDS011;60314;55.040;73.076;2022-08-23T02:11:11;5.15;;;1.80;;
72354;SDS011;60314;55.040;73.076;2022-08-23T02:13:45;4.70;;;2.05;;
72354;SDS011;60314;55.040;73.076;2022-08-23T02:16:24;3.80;;;2.15;;
72354;SDS011;60314;55.040;73.076;2022-08-23T02:18:57;5.43;;;2.05;;
72354;SDS011;60314;55.040;73.076;2022-08-23T02:21:23;7.57;;;2.60;;
72354;SDS011;60314;55.040;73.076;2022-08-23T02:23:51;5.50;;;2.10;;
72354;SDS011;60314;55.040;73.076;2022-08-23T02:26:18;4.65;;;2.03;;
72354;SDS011;60314;55.040;73.076;2022-08-23T02:28:51;3.78;;;1.75;;
72354;SDS011;60314;55.040;73.076;2022-08-23T02:31:28;3.08;;;1.63;;
72354;SDS011;60314;55.040;73.076;2022-08-23T02:34:10;4.07;;;2.10;;
72354;SDS011;60314;55.040;73.076;2022-08-23T02:36:41;3.28;;;1.60;;
72354;SDS011;60314;55.040;73.076;2022-08-23T02:39:09;8.02;;;2.03;;
72354;SDS011;60314;55.040;73.076;2022-08-23T02:41:37;5.95;;;1.98;;
72354;SDS011;60314;55.040;73.076;2022-08-23T02:44:07;5.72;;;2.03;;
72354;SDS011;60314;55.040;73.076;2022-08-23T02:46:34;9.35;;;2.00;;
72354;SDS011;60314;55.040;73.076;2022-08-23T02:49:01;10.13;;;1.90;;
72354;SDS011;60314;55.040;73.076;2022-08-23T02:51:29;4.45;;;2.03;;
72354;SDS011;60314;55.040;73.076;2022-08-23T02:53:56;7.05;;;2.03;;
72354;SDS011;60314;55.040;73.076;2022-08-23T02:56:25;4.75;;;1.73;;
72354;SDS011;60314;55.040;73.076;2022-08-23T02:58:52;7.93;;;1.83;;
72354;SDS011;60314;55.040;73.076;2022-08-23T03:01:24;9.32;;;2.28;;
72354;SDS011;60314;55.040;73.076;2022-08-23T03:04:03;8.55;;;3.10;;
72354;SDS011;60314;55.040;73.076;2022-08-23T03:06:31;11.80;;;2.63;;
72354;SDS011;60314;55.040;73.076;2022-08-23T03:08:59;14.75;;;2.97;;
72354;SDS011;60314;55.040;73.076;2022-08-23T03:11:25;8.70;;;2.97;;
72354;SDS011;60314;55.040;73.076;2022-08-23T03:13:53;9.25;;;2.60;;
72354;SDS011;60314;55.040;73.076;2022-08-23T03:16:22;6.20;;;2.55;;
72354;SDS011;60314;55.040;73.076;2022-08-23T03:18:50;13.52;;;3.00;;
72354;SDS011;60314;55.040;73.076;2022-08-23T03:21:18;11.10;;;2.70;;
72354;SDS011;60314;55.040;73.076;2022-08-23T03:23:46;10.05;;;2.25;;
72354;SDS011;60314;55.040;73.076;2022-08-23T03:26:23;12.88;;;2.97;;
72354;SDS011;60314;55.040;73.076;2022-08-23T03:29:09;7.88;;;2.88;;
72354;SDS011;60314;55.040;73.076;2022-08-23T03:31:52;33.25;;;5.20;;
72354;SDS011;60314;55.040;73.076;2022-08-23T03:34:19;26.88;;;4.45;;
72354;SDS011;60314;55.040;73.076;2022-08-23T03:36:46;13.10;;;2.45;;
72354;SDS011;60314;55.040;73.076;2022-08-23T03:39:13;5.20;;;1.63;;
72354;SDS011;60314;55.040;73.076;2022-08-23T03:41:39;8.40;;;1.80;;
72354;SDS011;60314;55.040;73.076;2022-08-23T03:44:07;16.70;;;2.92;;
72354;SDS011;60314;55.040;73.076;2022-08-23T03:46:36;54.80;;;7.53;;
72354;SDS011;60314;55.040;73.076;2022-08-23T03:49:03;6.00;;;1.40;;
72354;SDS011;60314;55.040;73.076;2022-08-23T03:51:49;3.83;;;1.50;;
72354;SDS011;60314;55.040;73.076;2022-08-23T03:54:16;4.25;;;1.65;;
72354;SDS011;60314;55.040;73.076;2022-08-23T03:56:58;7.05;;;1.90;;
72354;SDS011;60314;55.040;73.076;2022-08-23T03:59:33;6.60;;;1.85;;
72354;SDS011;60314;55.040;73.076;2022-08-23T04:02:15;42.60;;;6.13;;
72354;SDS011;60314;55.040;73.076;2022-08-23T04:04:52;13.88;;;3.40;;
72354;SDS011;60314;55.040;73.076;2022-08-23T04:07:43;5.18;;;1.83;;
72354;SDS011;60314;55.040;73.076;2022-08-23T04:10:15;4.45;;;1.30;;
72354;SDS011;60314;55.040;73.076;2022-08-23T04:13:00;2.72;;;1.35;;
72354;SDS011;60314;55.040;73.076;2022-08-23T04:15:27;4.43;;;1.40;;
72354;SDS011;60314;55.040;73.076;2022-08-23T04:17:54;4.18;;;1.55;;
72354;SDS011;60314;55.040;73.076;2022-08-23T04:20:22;7.57;;;2.63;;
72354;SDS011;60314;55.040;73.076;2022-08-23T04:23:08;5.35;;;2.53;;
72354;SDS011;60314;55.040;73.076;2022-08-23T04:25:46;10.05;;;1.40;;
72354;SDS011;60314;55.040;73.076;2022-08-23T04:28:13;4.40;;;1.50;;
72354;SDS011;60314;55.040;73.076;2022-08-23T04:30:41;4.50;;;1.45;;
72354;SDS011;60314;55.040;73.076;2022-08-23T04:33:13;5.27;;;1.50;;
72354;SDS011;60314;55.040;73.076;2022-08-23T04:35:39;2.85;;;1.38;;
72354;SDS011;60314;55.040;73.076;2022-08-23T04:38:07;4.95;;;1.40;;
72354;SDS011;60314;55.040;73.076;2022-08-23T04:40:34;2.65;;;1.10;;
72354;SDS011;60314;55.040;73.076;2022-08-23T04:43:19;4.35;;;1.30;;
72354;SDS011;60314;55.040;73.076;2022-08-23T04:45:46;2.90;;;1.00;;
72354;SDS011;60314;55.040;73.076;2022-08-23T04:48:30;4.85;;;2.22;;
72354;SDS011;60314;55.040;73.076;2022-08-23T04:51:00;7.45;;;1.40;;
72354;SDS011;60314;55.040;73.076;2022-08-23T04:53:30;6.80;;;1.08;;
72354;SDS011;60314;55.040;73.076;2022-08-23T04:56:22;3.55;;;1.38;;
72354;SDS011;60314;55.040;73.076;2022-08-23T04:58:50;6.63;;;2.42;;
72354;SDS011;60314;55.040;73.076;2022-08-23T05:01:17;3.97;;;1.10;;
72354;SDS011;60314;55.040;73.076;2022-08-23T05:03:45;3.08;;;1.17;;
72354;SDS011;60314;55.040;73.076;2022-08-23T05:06:12;3.88;;;1.17;;
72354;SDS011;60314;55.040;73.076;2022-08-23T05:08:40;2.60;;;1.30;;
72354;SDS011;60314;55.040;73.076;2022-08-23T05:11:09;3.33;;;1.27;;
72354;SDS011;60314;55.040;73.076;2022-08-23T05:13:43;5.93;;;1.20;;
72354;SDS011;60314;55.040;73.076;2022-08-23T05:16:10;3.03;;;1.40;;
72354;SDS011;60314;55.040;73.076;2022-08-23T05:21:20;5.78;;;1.30;;
72354;SDS011;60314;55.040;73.076;2022-08-23T05:23:48;2.60;;;1.10;;
72354;SDS011;60314;55.040;73.076;2022-08-23T05:26:19;3.20;;;1.30;;
72354;SDS011;60314;55.040;73.076;2022-08-23T05:28:47;3.15;;;1.17;;
72354;SDS011;60314;55.040;73.076;2022-08-23T05:31:18;10.85;;;1.50;;
72354;SDS011;60314;55.040;73.076;2022-08-23T05:33:53;9.70;;;2.80;;
72354;SDS011;60314;55.040;73.076;2022-08-23T05:36:46;5.82;;;1.92;;
72354;SDS011;60314;55.040;73.076;2022-08-23T05:39:14;3.05;;;1.10;;
72354;SDS011;60314;55.040;73.076;2022-08-23T05:41:42;2.55;;;1.17;;
72354;SDS011;60314;55.040;73.076;2022-08-23T05:44:11;3.80;;;1.20;;
72354;SDS011;60314;55.040;73.076;2022-08-23T05:46:45;4.78;;;1.42;;
72354;SDS011;60314;55.040;73.076;2022-08-23T05:49:30;6.38;;;2.05;;
72354;SDS011;60314;55.040;73.076;2022-08-23T05:51:58;7.90;;;1.63;;
72354;SDS011;60314;55.040;73.076;2022-08-23T05:54:29;2.92;;;1.15;;
72354;SDS011;60314;55.040;73.076;2022-08-23T05:57:13;4.72;;;1.67;;
72354;SDS011;60314;55.040;73.076;2022-08-23T05:59:40;2.80;;;1.20;;
72354;SDS011;60314;55.040;73.076;2022-08-23T06:02:08;3.88;;;1.40;;
72354;SDS011;60314;55.040;73.076;2022-08-23T06:04:35;4.80;;;1.50;;
72354;SDS011;60314;55.040;73.076;2022-08-23T06:07:01;7.65;;;2.85;;
72354;SDS011;60314;55.040;73.076;2022-08-23T06:09:30;13.07;;;5.30;;
72354;SDS011;60314;55.040;73.076;2022-08-23T06:11:58;6.15;;;1.80;;
72354;SDS011;60314;55.040;73.076;2022-08-23T06:14:25;5.53;;;1.30;;
72354;SDS011;60314;55.040;73.076;2022-08-23T06:17:10;6.47;;;1.48;;
72354;SDS011;60314;55.040;73.076;2022-08-23T06:19:37;6.13;;;1.83;;
72354;SDS011;60314;55.040;73.076;2022-08-23T06:22:18;3.05;;;1.15;;
72354;SDS011;60314;55.040;73.076;2022-08-23T06:24:46;5.10;;;1.30;;
72354;SDS011;60314;55.040;73.076;2022-08-23T06:27:15;3.38;;;1.20;;
72354;SDS011;60314;55.040;73.076;2022-08-23T06:29:42;5.88;;;1.40;;
72354;SDS011;60314;55.040;73.076;2022-08-23T06:32:33;5.95;;;1.50;;
72354;SDS011;60314;55.040;73.076;2022-08-23T06:35:25;5.55;;;2.00;;
72354;SDS011;60314;55.040;73.076;2022-08-23T06:40:50;4.38;;;1.50;;
72354;SDS011;60314;55.040;73.076;2022-08-23T06:43:37;11.05;;;1.83;;
72354;SDS011;60314;55.040;73.076;2022-08-23T06:48:45;4.32;;;1.38;;
72354;SDS011;60314;55.040;73.076;2022-08-23T06:51:29;8.90;;;1.77;;
72354;SDS011;60314;55.040;73.076;2022-08-23T06:54:11;3.65;;;1.58;;
72354;SDS011;60314;55.040;73.076;2022-08-23T06:56:40;9.48;;;1.85;;
72354;SDS011;60314;55.040;73.076;2022-08-23T06:59:17;11.98;;;1.75;;
72354;SDS011;60314;55.040;73.076;2022-08-23T07:02:04;4.93;;;1.52;;
72354;SDS011;60314;55.040;73.076;2022-08-23T07:05:05;9.43;;;2.10;;
72354;SDS011;60314;55.040;73.076;2022-08-23T07:07:58;5.10;;;1.58;;
72354;SDS011;60314;55.040;73.076;2022-08-23T07:10:24;14.95;;;3.33;;
72354;SDS011;60314;55.040;73.076;2022-08-23T07:12:51;12.02;;;3.03;;
72354;SDS011;60314;55.040;73.076;2022-08-23T07:15:19;8.13;;;2.22;;
72354;SDS011;60314;55.040;73.076;2022-08-23T07:17:46;11.57;;;2.50;;
72354;SDS011;60314;55.040;73.076;2022-08-23T07:20:13;5.47;;;1.63;;
72354;SDS011;60314;55.040;73.076;2022-08-23T07:22:42;11.30;;;2.50;;
72354;SDS011;60314;55.040;73.076;2022-08-23T07:25:15;5.88;;;1.50;;
72354;SDS011;60314;55.040;73.076;2022-08-23T07:27:44;23.42;;;4.07;;
72354;SDS011;60314;55.040;73.076;2022-08-23T07:30:13;22.58;;;4.72;;
72354;SDS011;60314;55.040;73.076;2022-08-23T07:32:40;24.25;;;4.13;;
72354;SDS011;60314;55.040;73.076;2022-08-23T07:35:27;16.42;;;2.35;;
72354;SDS011;60314;55.040;73.076;2022-08-23T07:37:55;9.45;;;2.58;;
72354;SDS011;60314;55.040;73.076;2022-08-23T07:40:31;17.45;;;2.80;;
72354;SDS011;60314;55.040;73.076;2022-08-23T07:42:59;14.43;;;2.97;;
72354;SDS011;60314;55.040;73.076;2022-08-23T07:45:25;13.93;;;2.78;;
72354;SDS011;60314;55.040;73.076;2022-08-23T07:47:56;7.53;;;2.17;;
72354;SDS011;60314;55.040;73.076;2022-08-23T07:50:24;22.70;;;2.80;;
72354;SDS011;60314;55.040;73.076;2022-08-23T07:52:52;18.92;;;3.60;;
72354;SDS011;60314;55.040;73.076;2022-08-23T07:55:28;15.60;;;3.08;;
72354;SDS011;60314;55.040;73.076;2022-08-23T07:58:07;19.15;;;3.15;;
72354;SDS011;60314;55.040;73.076;2022-08-23T08:00:54;19.90;;;3.35;;
72354;SDS011;60314;55.040;73.076;2022-08-23T08:03:51;19.80;;;3.50;;
72354;SDS011;60314;55.040;73.076;2022-08-23T08:06:34;13.80;;;3.20;;
72354;SDS011;60314;55.040;73.076;2022-08-23T08:09:13;18.27;;;3.40;;
72354;SDS011;60314;55.040;73.076;2022-08-23T08:11:42;15.48;;;3.63;;
72354;SDS011;60314;55.040;73.076;2022-08-23T08:14:14;25.42;;;5.00;;
72354;SDS011;60314;55.040;73.076;2022-08-23T08:16:49;27.90;;;4.70;;
72354;SDS011;60314;55.040;73.076;2022-08-23T08:19:36;19.42;;;3.70;;
72354;SDS011;60314;55.040;73.076;2022-08-23T08:22:21;21.02;;;3.95;;
72354;SDS011;60314;55.040;73.076;2022-08-23T08:25:08;15.88;;;3.17;;
72354;SDS011;60314;55.040;73.076;2022-08-23T08:27:38;16.88;;;3.22;;
72354;SDS011;60314;55.040;73.076;2022-08-23T08:30:11;16.90;;;2.83;;
72354;SDS011;60314;55.040;73.076;2022-08-23T08:32:39;20.60;;;3.42;;
72354;SDS011;60314;55.040;73.076;2022-08-23T08:35:07;14.63;;;3.00;;
72354;SDS011;60314;55.040;73.076;2022-08-23T08:37:35;10.75;;;2.70;;
72354;SDS011;60314;55.040;73.076;2022-08-23T08:40:09;17.80;;;2.92;;
72354;SDS011;60314;55.040;73.076;2022-08-23T08:42:47;25.92;;;4.25;;
72354;SDS011;60314;55.040;73.076;2022-08-23T08:45:24;20.63;;;3.78;;
72354;SDS011;60314;55.040;73.076;2022-08-23T08:47:59;12.70;;;2.38;;
72354;SDS011;60314;55.040;73.076;2022-08-23T08:50:50;7.75;;;2.10;;
72354;SDS011;60314;55.040;73.076;2022-08-23T08:53:30;13.43;;;2.97;;
72354;SDS011;60314;55.040;73.076;2022-08-23T08:56:22;17.13;;;4.07;;
72354;SDS011;60314;55.040;73.076;2022-08-23T08:59:05;23.00;;;4.65;;
72354;SDS011;60314;55.040;73.076;2022-08-23T09:01:38;25.85;;;4.32;;
72354;SDS011;60314;55.040;73.076;2022-08-23T09:04:05;27.67;;;4.22;;
72354;SDS011;60314;55.040;73.076;2022-08-23T09:15:08;13.07;;;2.63;;
72354;SDS011;60314;55.040;73.076;2022-08-23T09:17:41;11.52;;;2.60;;
72354;SDS011;60314;55.040;73.076;2022-08-23T09:20:13;18.10;;;3.22;;
72354;SDS011;60314;55.040;73.076;2022-08-23T09:22:46;15.23;;;3.58;;
72354;SDS011;60314;55.040;73.076;2022-08-23T09:25:27;17.00;;;3.55;;
72354;SDS011;60314;55.040;73.076;2022-08-23T09:28:06;16.67;;;3.05;;
72354;SDS011;60314;55.040;73.076;2022-08-23T09:33:21;12.70;;;2.70;;
72354;SDS011;60314;55.040;73.076;2022-08-23T09:36:04;14.77;;;2.25;;
72354;SDS011;60314;55.040;73.076;2022-08-23T09:38:56;19.90;;;3.65;;
72354;SDS011;60314;55.040;73.076;2022-08-23T09:41:27;18.63;;;3.58;;
72354;SDS011;60314;55.040;73.076;2022-08-23T09:44:12;23.20;;;2.95;;
72354;SDS011;60314;55.040;73.076;2022-08-23T09:47:05;14.40;;;2.65;;
72354;SDS011;60314;55.040;73.076;2022-08-23T09:49:42;21.58;;;3.53;;
72354;SDS011;60314;55.040;73.076;2022-08-23T09:52:21;14.77;;;2.47;;
72354;SDS011;60314;55.040;73.076;2022-08-23T09:55:25;12.45;;;2.08;;
72354;SDS011;60314;55.040;73.076;2022-08-23T09:57:59;7.65;;;1.92;;
72354;SDS011;60314;55.040;73.076;2022-08-23T10:00:31;17.42;;;3.08;;
72354;SDS011;60314;55.040;73.076;2022-08-23T10:05:56;25.58;;;3.40;;
72354;SDS011;60314;55.040;73.076;2022-08-23T10:08:37;14.80;;;3.33;;
72354;SDS011;60314;55.040;73.076;2022-08-23T10:11:34;12.90;;;2.58;;
72354;SDS011;60314;55.040;73.076;2022-08-23T10:14:12;37.88;;;5.50;;
72354;SDS011;60314;55.040;73.076;2022-08-23T10:22:25;25.65;;;4.45;;
72354;SDS011;60314;55.040;73.076;2022-08-23T10:25:53;38.95;;;4.63;;
72354;SDS011;60314;55.040;73.076;2022-08-23T10:28:34;13.63;;;2.83;;
72354;SDS011;60314;55.040;73.076;2022-08-23T10:31:42;8.55;;;1.88;;
72354;SDS011;60314;55.040;73.076;2022-08-23T10:40:18;10.55;;;1.98;;
72354;SDS011;60314;55.040;73.076;2022-08-23T10:45:58;4.70;;;1.58;;
72354;SDS011;60314;55.040;73.076;2022-08-23T10:48:46;13.95;;;2.10;;
72354;SDS011;60314;55.040;73.076;2022-08-23T10:51:19;6.90;;;1.88;;
72354;SDS011;60314;55.040;73.076;2022-08-23T10:53:54;3.75;;;1.20;;
72354;SDS011;60314;55.040;73.076;2022-08-23T10:56:35;3.33;;;1.17;;
72354;SDS011;60314;55.040;73.076;2022-08-23T11:04:55;3.38;;;1.20;;
72354;SDS011;60314;55.040;73.076;2022-08-23T11:07:54;5.10;;;1.40;;
72354;SDS011;60314;55.040;73.076;2022-08-23T11:15:45;22.15;;;3.55;;
72354;SDS011;60314;55.040;73.076;2022-08-23T11:28:49;6.97;;;1.70;;
72354;SDS011;60314;55.040;73.076;2022-08-23T11:31:25;5.38;;;1.55;;
72354;SDS011;60314;55.040;73.076;2022-08-23T11:33:59;4.55;;;1.25;;
72354;SDS011;60314;55.040;73.076;2022-08-23T11:36:28;7.50;;;1.83;;
72354;SDS011;60314;55.040;73.076;2022-08-23T11:41:28;18.33;;;2.05;;
72354;SDS011;60314;55.040;73.076;2022-08-23T11:46:33;11.43;;;2.25;;
72354;SDS011;60314;55.040;73.076;2022-08-23T12:03:23;8.93;;;1.80;;
72354;SDS011;60314;55.040;73.076;2022-08-23T12:11:11;5.38;;;1.67;;
72354;SDS011;60314;55.040;73.076;2022-08-23T12:13:55;5.95;;;1.70;;
72354;SDS011;60314;55.040;73.076;2022-08-23T12:16:26;4.43;;;1.27;;
72354;SDS011;60314;55.040;73.076;2022-08-23T12:18:56;10.20;;;2.30;;
72354;SDS011;60314;55.040;73.076;2022-08-23T12:29:28;4.95;;;1.50;;
72354;SDS011;60314;55.040;73.076;2022-08-23T12:34:45;6.60;;;1.48;;
72354;SDS011;60314;55.040;73.076;2022-08-23T12:37:45;4.38;;;1.30;;
72354;SDS011;60314;55.040;73.076;2022-08-23T12:40:20;4.63;;;1.27;;
72354;SDS011;60314;55.040;73.076;2022-08-23T12:42:52;2.83;;;1.15;;
72354;SDS011;60314;55.040;73.076;2022-08-23T12:45:37;3.47;;;1.30;;
72354;SDS011;60314;55.040;73.076;2022-08-23T12:48:18;3.92;;;1.50;;
72354;SDS011;60314;55.040;73.076;2022-08-23T12:50:51;3.92;;;1.10;;
72354;SDS011;60314;55.040;73.076;2022-08-23T12:53:42;4.00;;;1.27;;
72354;SDS011;60314;55.040;73.076;2022-08-23T12:56:15;3.25;;;1.25;;
72354;SDS011;60314;55.040;73.076;2022-08-23T12:58:47;6.80;;;1.42;;
72354;SDS011;60314;55.040;73.076;2022-08-23T13:01:18;3.70;;;1.23;;
72354;SDS011;60314;55.040;73.076;2022-08-23T13:03:53;3.38;;;1.20;;
72354;SDS011;60314;55.040;73.076;2022-08-23T13:06:25;5.30;;;1.30;;
72354;SDS011;60314;55.040;73.076;2022-08-23T13:09:02;2.72;;;1.20;;
72354;SDS011;60314;55.040;73.076;2022-08-23T13:11:37;2.55;;;1.00;;
72354;SDS011;60314;55.040;73.076;2022-08-23T13:17:18;5.20;;;1.38;;
72354;SDS011;60314;55.040;73.076;2022-08-23T13:19:45;2.83;;;1.20;;
72354;SDS011;60314;55.040;73.076;2022-08-23T13:27:50;26.05;;;2.85;;
72354;SDS011;60314;55.040;73.076;2022-08-23T13:30:24;10.77;;;1.47;;
72354;SDS011;60314;55.040;73.076;2022-08-23T13:35:36;4.72;;;1.40;;
72354;SDS011;60314;55.040;73.076;2022-08-23T13:43:46;14.20;;;1.50;;
72354;SDS011;60314;55.040;73.076;2022-08-23T13:46:24;6.78;;;1.33;;
72354;SDS011;60314;55.040;73.076;2022-08-23T13:48:57;2.92;;;1.52;;
72354;SDS011;60314;55.040;73.076;2022-08-23T13:54:25;4.70;;;1.95;;
72354;SDS011;60314;55.040;73.076;2022-08-23T13:56:54;4.07;;;1.98;;
72354;SDS011;60314;55.040;73.076;2022-08-23T13:59:26;4.85;;;1.98;;
72354;SDS011;60314;55.040;73.076;2022-08-23T14:01:55;6.40;;;2.05;;
72354;SDS011;60314;55.040;73.076;2022-08-23T14:04:29;10.02;;;1.85;;
72354;SDS011;60314;55.040;73.076;2022-08-23T14:07:01;4.75;;;1.80;;
72354;SDS011;60314;55.040;73.076;2022-08-23T14:09:29;6.18;;;2.03;;
72354;SDS011;60314;55.040;73.076;2022-08-23T14:11:58;5.22;;;1.92;;
72354;SDS011;60314;55.040;73.076;2022-08-23T14:14:38;10.43;;;2.60;;
72354;SDS011;60314;55.040;73.076;2022-08-23T14:17:06;10.05;;;2.35;;
72354;SDS011;60314;55.040;73.076;2022-08-23T14:19:35;9.52;;;3.30;;
72354;SDS011;60314;55.040;73.076;2022-08-23T14:22:13;5.60;;;2.10;;
72354;SDS011;60314;55.040;73.076;2022-08-23T14:24:43;10.25;;;2.53;;
72354;SDS011;60314;55.040;73.076;2022-08-23T14:27:10;7.80;;;2.80;;
72354;SDS011;60314;55.040;73.076;2022-08-23T14:29:37;10.20;;;2.78;;
72354;SDS011;60314;55.040;73.076;2022-08-23T14:32:04;8.85;;;2.78;;
72354;SDS011;60314;55.040;73.076;2022-08-23T14:34:31;7.05;;;2.50;;
72354;SDS011;60314;55.040;73.076;2022-08-23T14:36:57;5.50;;;2.30;;
72354;SDS011;60314;55.040;73.076;2022-08-23T14:39:24;5.55;;;2.40;;
72354;SDS011;60314;55.040;73.076;2022-08-23T14:41:53;10.05;;;2.85;;
72354;SDS011;60314;55.040;73.076;2022-08-23T14:44:20;8.77;;;3.15;;
72354;SDS011;60314;55.040;73.076;2022-08-23T14:46:46;10.68;;;2.67;;
72354;SDS011;60314;55.040;73.076;2022-08-23T14:49:13;14.10;;;2.95;;
72354;SDS011;60314;55.040;73.076;2022-08-23T14:51:44;11.25;;;3.22;;
72354;SDS011;60314;55.040;73.076;2022-08-23T14:54:17;11.85;;;2.88;;
72354;SDS011;60314;55.040;73.076;2022-08-23T14:57:05;9.43;;;2.53;;
72354;SDS011;60314;55.040;73.076;2022-08-23T14:59:31;10.52;;;3.15;;
72354;SDS011;60314;55.040;73.076;2022-08-23T15:01:58;12.52;;;3.20;;
72354;SDS011;60314;55.040;73.076;2022-08-23T15:04:25;15.75;;;3.35;;
72354;SDS011;60314;55.040;73.076;2022-08-23T15:06:53;23.98;;;3.83;;
72354;SDS011;60314;55.040;73.076;2022-08-23T15:09:21;14.55;;;3.72;;
72354;SDS011;60314;55.040;73.076;2022-08-23T15:11:57;19.13;;;3.20;;
72354;SDS011;60314;55.040;73.076;2022-08-23T15:14:24;13.20;;;3.55;;
72354;SDS011;60314;55.040;73.076;2022-08-23T15:16:55;12.18;;;2.63;;
72354;SDS011;60314;55.040;73.076;2022-08-23T15:19:22;8.25;;;2.70;;
72354;SDS011;60314;55.040;73.076;2022-08-23T15:21:48;18.40;;;3.22;;
72354;SDS011;60314;55.040;73.076;2022-08-23T15:24:15;19.23;;;3.47;;
72354;SDS011;60314;55.040;73.076;2022-08-23T15:26:41;14.05;;;2.92;;
72354;SDS011;60314;55.040;73.076;2022-08-23T15:29:08;12.63;;;3.08;;
72354;SDS011;60314;55.040;73.076;2022-08-23T15:31:34;16.50;;;3.20;;
72354;SDS011;60314;55.040;73.076;2022-08-23T15:34:01;13.65;;;2.88;;
72354;SDS011;60314;55.040;73.076;2022-08-23T15:36:27;8.00;;;2.50;;
72354;SDS011;60314;55.040;73.076;2022-08-23T15:38:56;11.15;;;2.53;;
72354;SDS011;60314;55.040;73.076;2022-08-23T15:41:22;9.57;;;2.60;;
72354;SDS011;60314;55.040;73.076;2022-08-23T15:43:49;10.50;;;2.53;;
72354;SDS011;60314;55.040;73.076;2022-08-23T15:46:18;9.75;;;2.88;;
72354;SDS011;60314;55.040;73.076;2022-08-23T15:51:15;9.98;;;2.80;;
72354;SDS011;60314;55.040;73.076;2022-08-23T15:53:42;14.68;;;3.70;;
72354;SDS011;60314;55.040;73.076;2022-08-23T15:56:17;8.50;;;2.92;;
72354;SDS011;60314;55.040;73.076;2022-08-23T15:58:58;5.25;;;2.55;;
72354;SDS011;60314;55.040;73.076;2022-08-23T16:01:26;5.43;;;2.63;;
72354;SDS011;60314;55.040;73.076;2022-08-23T16:03:55;11.07;;;3.75;;
72354;SDS011;60314;55.040;73.076;2022-08-23T16:06:21;19.58;;;5.88;;
72354;SDS011;60314;55.040;73.076;2022-08-23T16:08:48;13.43;;;6.30;;
72354;SDS011;60314;55.040;73.076;2022-08-23T16:11:17;15.55;;;6.60;;
72354;SDS011;60314;55.040;73.076;2022-08-23T16:13:45;11.68;;;4.53;;
72354;SDS011;60314;55.040;73.076;2022-08-23T16:16:15;10.13;;;4.95;;
72354;SDS011;60314;55.040;73.076;2022-08-23T16:18:47;13.60;;;6.10;;
72354;SDS011;60314;55.040;73.076;2022-08-23T16:21:15;14.18;;;6.82;;
72354;SDS011;60314;55.040;73.076;2022-08-23T16:23:42;20.48;;;9.05;;
72354;SDS011;60314;55.040;73.076;2022-08-23T16:26:10;25.98;;;12.48;;
72354;SDS011;60314;55.040;73.076;2022-08-23T16:28:42;31.63;;;14.10;;
72354;SDS011;60314;55.040;73.076;2022-08-23T16:31:11;36.40;;;15.45;;
72354;SDS011;60314;55.040;73.076;2022-08-23T16:33:38;37.72;;;17.83;;
72354;SDS011;60314;55.040;73.076;2022-08-23T16:38:37;36.78;;;16.55;;
72354;SDS011;60314;55.040;73.076;2022-08-23T16:41:04;36.65;;;15.75;;
72354;SDS011;60314;55.040;73.076;2022-08-23T16:43:40;38.40;;;15.43;;
72354;SDS011;60314;55.040;73.076;2022-08-23T16:46:07;28.33;;;13.27;;
72354;SDS011;60314;55.040;73.076;2022-08-23T16:48:34;21.35;;;8.93;;
72354;SDS011;60314;55.040;73.076;2022-08-23T16:51:06;17.83;;;8.20;;
72354;SDS011;60314;55.040;73.076;2022-08-23T16:53:32;23.70;;;9.30;;
72354;SDS011;60314;55.040;73.076;2022-08-23T16:55:59;32.50;;;13.95;;
72354;SDS011;60314;55.040;73.076;2022-08-23T16:58:26;37.10;;;17.95;;
72354;SDS011;60314;55.040;73.076;2022-08-23T17:00:53;48.45;;;20.77;;
72354;SDS011;60314;55.040;73.076;2022-08-23T17:03:19;49.38;;;22.05;;
72354;SDS011;60314;55.040;73.076;2022-08-23T17:05:46;50.53;;;21.70;;
72354;SDS011;60314;55.040;73.076;2022-08-23T17:08:13;46.05;;;22.00;;
72354;SDS011;60314;55.040;73.076;2022-08-23T17:10:40;50.58;;;22.48;;
72354;SDS011;60314;55.040;73.076;2022-08-23T17:13:07;62.50;;;30.13;;
72354;SDS011;60314;55.040;73.076;2022-08-23T17:15:36;66.05;;;36.15;;